Time;durP1;ratioP1;P1;durP2;ratioP2;P2;SDS_P1;SDS_P2;PMS_P1;PMS_P2;Temp;Humidity;BMP_temperature;BMP_pressure;BME280_temperature;BME280_humidity;BME280_pressure;Samples;Min_cycle;Max_cycle;Signal;HPM_P1;HPM_P2
2022/01/07 00:01:07;;;;;;;14.52;8.65;;;;;;;3.87;52.50;95616.22;5049998;28;20025;-62
2022/01/07 00:03:32;;;;;;;11.43;8.90;;;;;;;3.69;52.86;95604.25;5050584;28;20032;-62
2022/01/07 00:05:59;;;;;;;10.90;7.72;;;;;;;3.68;52.74;95567.63;5032422;28;20025;-62
2022/01/07 00:08:25;;;;;;;13.57;8.98;;;;;;;4.19;52.46;95668.88;5050867;28;20021;-62
2022/01/07 00:10:51;;;;;;;18.17;9.20;;;;;;;3.41;52.46;95544.78;5050525;28;20103;-62
2022/01/07 00:13:16;;;;;;;15.50;9.07;;;;;;;3.34;52.63;95552.88;5050634;28;20164;-62
2022/01/07 00:15:42;;;;;;;17.48;9.13;;;;;;;2.99;52.70;95515.69;5049824;28;20543;-62
2022/01/07 00:18:08;;;;;;;13.55;8.25;;;;;;;3.69;52.94;95606.88;5050517;28;20021;-62
2022/01/07 00:20:34;;;;;;;14.30;8.23;;;;;;;4.09;52.72;95671.44;5050000;28;20523;-62
2022/01/07 00:23:00;;;;;;;12.80;8.48;;;;;;;2.17;52.71;95364.31;5050507;28;20021;-62
2022/01/07 00:25:26;;;;;;;11.68;7.97;;;;;;;3.95;53.08;95628.16;5050255;28;20052;-62
2022/01/07 00:27:52;;;;;;;12.75;7.63;;;;;;;3.93;52.85;95620.50;5050468;28;20056;-62
2022/01/07 00:30:19;;;;;;;13.18;7.65;;;;;;;2.51;52.41;95406.97;5049637;28;20021;-62
2022/01/07 00:32:45;;;;;;;17.92;7.95;;;;;;;2.44;52.67;95394.00;5050223;28;20107;-62
2022/01/07 00:35:13;;;;;;;12.95;7.63;;;;;;;2.66;52.62;95430.72;5049947;28;20629;-62
2022/01/07 00:37:38;;;;;;;9.45;6.28;;;;;;;2.76;52.59;95495.72;5050471;28;20021;-63
2022/01/07 00:40:06;;;;;;;12.60;6.82;;;;;;;3.69;52.37;95619.22;5049911;28;20025;-62
2022/01/07 00:42:31;;;;;;;10.70;6.25;;;;;;;2.01;51.99;95358.88;5050128;28;20033;-62
2022/01/07 00:44:56;;;;;;;8.10;5.63;;;;;;;3.99;51.83;95651.06;5049485;28;20032;-62
2022/01/07 00:47:22;;;;;;;10.15;6.97;;;;;;;1.88;51.99;95338.25;5031864;28;20063;-64
2022/01/07 00:49:48;;;;;;;6.10;5.40;;;;;;;2.24;51.51;95368.31;5049654;28;20685;-62
2022/01/07 00:52:13;;;;;;;8.38;5.13;;;;;;;1.35;52.25;95226.97;5050145;28;20536;-63
2022/01/07 00:54:39;;;;;;;7.43;5.63;;;;;;;3.84;51.88;95662.28;5049854;28;20036;-64
2022/01/07 00:57:04;;;;;;;11.63;5.85;;;;;;;3.03;51.79;95520.22;5049859;28;20104;-61
2022/01/07 00:59:30;;;;;;;10.40;6.28;;;;;;;3.27;51.70;95577.75;5049665;28;20496;-61
2022/01/07 01:01:55;;;;;;;7.68;5.40;;;;;;;3.74;51.82;95625.34;5049098;28;20021;-61
2022/01/07 01:04:21;;;;;;;10.50;6.00;;;;;;;3.26;51.99;95540.16;5049346;28;20146;-63
2022/01/07 01:06:46;;;;;;;10.18;5.63;;;;;;;1.03;51.98;95193.56;5049628;28;20127;-63
2022/01/07 01:09:12;;;;;;;13.43;6.07;;;;;;;1.93;52.01;95355.88;5049392;28;20056;-63
2022/01/07 01:11:38;;;;;;;10.82;6.13;;;;;;;1.26;51.82;95244.16;5049579;28;20377;-63
2022/01/07 01:14:05;;;;;;;8.23;5.50;;;;;;;1.60;51.91;95354.16;5049571;28;20033;-63
2022/01/07 01:16:31;;;;;;;8.65;6.07;;;;;;;2.17;52.11;95429.91;5048689;28;20037;-64
2022/01/07 01:18:57;;;;;;;10.05;5.88;;;;;;;1.78;52.01;95330.25;5049087;28;20096;-63
2022/01/07 01:21:22;;;;;;;8.90;5.55;;;;;;;3.55;52.35;95608.31;5049283;28;20689;-62
2022/01/07 01:23:50;;;;;;;10.27;6.30;;;;;;;1.33;51.89;95276.19;5049112;28;20024;-63
2022/01/07 01:26:18;;;;;;;7.47;5.72;;;;;;;2.51;52.22;95455.03;5048972;28;20060;-63
2022/01/07 01:28:44;;;;;;;9.55;5.80;;;;;;;2.95;52.03;95523.28;5049267;28;20025;-63
2022/01/07 01:31:10;;;;;;;13.43;5.65;;;;;;;1.86;52.05;95345.59;5049784;28;20029;-63
2022/01/07 01:33:36;;;;;;;15.88;6.28;;;;;;;2.23;52.30;95400.84;5048766;28;20028;-63
2022/01/07 01:36:02;;;;;;;11.57;5.65;;;;;;;2.18;52.15;95400.00;5048638;28;20461;-63
2022/01/07 01:38:29;;;;;;;10.25;5.20;;;;;;;1.52;52.22;95310.78;5048774;28;20113;-63
2022/01/07 01:40:55;;;;;;;10.43;5.40;;;;;;;3.45;52.21;95609.00;5048717;28;20582;-63
2022/01/07 01:43:20;;;;;;;7.97;5.32;;;;;;;3.42;51.71;95617.34;5049104;28;20025;-63
2022/01/07 01:45:46;;;;;;;9.30;5.53;;;;;;;1.35;52.04;95310.06;5048108;28;20112;-63
2022/01/07 01:48:11;;;;;;;8.95;5.60;;;;;;;1.60;51.90;95338.44;5048541;28;20471;-64
2022/01/07 01:50:37;;;;;;;9.13;5.20;;;;;;;1.83;51.95;95343.44;5048591;28;20035;-63
2022/01/07 01:53:02;;;;;;;10.77;5.65;;;;;;;3.35;52.20;95593.91;5048949;28;20040;-63
2022/01/07 01:55:28;;;;;;;8.50;4.95;;;;;;;2.97;52.28;95510.69;5048717;28;20090;-63
2022/01/07 01:57:54;;;;;;;7.57;5.43;;;;;;;2.64;52.07;95466.97;5049128;28;20056;-63
2022/01/07 02:00:23;;;;;;;10.27;5.10;;;;;;;1.45;52.01;95316.22;5052180;28;20044;-63
2022/01/07 02:02:50;;;;;;;7.28;5.05;;;;;;;2.83;52.05;95522.63;5054401;28;20060;-63
2022/01/07 02:05:16;;;;;;;8.52;4.97;;;;;;;3.13;52.02;95546.59;5052558;28;20036;-63
2022/01/07 02:07:42;;;;;;;8.43;4.85;;;;;;;3.09;51.91;95542.88;5034979;28;20086;-64
2022/01/07 02:10:12;;;;;;;8.10;4.65;;;;;;;2.24;51.92;95423.44;5052367;28;20071;-63
2022/01/07 02:12:39;;;;;;;7.57;4.38;;;;;;;2.76;51.91;95496.50;5052783;28;20029;-62
2022/01/07 02:15:05;;;;;;;7.07;4.50;;;;;;;3.11;52.02;95540.78;5052562;28;20060;-62
2022/01/07 02:17:32;;;;;;;6.88;4.60;;;;;;;2.69;51.65;95484.63;5051922;28;20041;-62
2022/01/07 02:19:57;;;;;;;6.55;4.63;;;;;;;3.15;51.73;95554.25;5052107;28;20029;-62
2022/01/07 02:22:24;;;;;;;10.48;5.55;;;;;;;1.61;51.65;95321.66;5052461;28;20025;-63
2022/01/07 02:24:51;;;;;;;6.68;4.13;;;;;;;1.14;51.78;95290.63;5052189;28;20533;-63
2022/01/07 02:27:17;;;;;;;8.73;4.15;;;;;;;3.07;51.78;95571.25;5052620;28;20029;-63
2022/01/07 02:29:45;;;;;;;6.40;3.95;;;;;;;3.09;52.29;95568.38;5052110;28;20104;-63
2022/01/07 02:32:11;;;;;;;10.32;4.93;;;;;;;1.96;51.73;95392.13;5033609;28;20033;-63
2022/01/07 02:34:36;;;;;;;7.80;4.15;;;;;;;3.03;52.25;95593.81;5051820;28;20059;-63
2022/01/07 02:37:03;;;;;;;5.88;4.40;;;;;;;1.68;52.13;95357.16;5034270;28;20056;-63
2022/01/07 02:39:28;;;;;;;7.55;4.20;;;;;;;1.78;52.09;95390.59;5051895;28;20075;-64
2022/01/07 02:41:54;;;;;;;5.68;4.00;;;;;;;2.63;51.77;95496.91;5052262;28;20056;-64
2022/01/07 02:44:19;;;;;;;6.40;3.83;;;;;;;1.47;51.29;95353.47;5052250;28;20059;-64
2022/01/07 02:46:45;;;;;;;6.38;4.07;;;;;;;1.61;51.59;95361.00;5051131;28;20039;-63
2022/01/07 02:49:14;;;;;;;6.10;4.10;;;;;;;2.83;51.71;95535.75;5051580;28;20032;-62
2022/01/07 02:51:40;;;;;;;10.38;4.90;;;;;;;1.60;51.43;95336.59;5051784;28;20064;-64
2022/01/07 02:54:06;;;;;;;7.95;4.07;;;;;;;2.21;51.73;95446.78;5052186;28;20100;-62
2022/01/07 02:56:32;;;;;;;6.32;4.00;;;;;;;2.00;52.01;95415.03;5051971;28;20039;-62
2022/01/07 02:58:58;;;;;;;7.82;4.05;;;;;;;0.59;53.21;95281.69;5051719;28;20108;-62
2022/01/07 03:01:23;;;;;;;6.57;4.10;;;;;;;-0.16;54.59;95280.09;5033508;28;20359;-62
2022/01/07 03:03:49;;;;;;;6.00;3.60;;;;;;;-0.76;56.38;95256.19;5051590;28;20025;-62
2022/01/07 03:06:14;;;;;;;5.20;3.20;;;;;;;0.64;56.89;95506.91;5051514;28;20044;-62
2022/01/07 03:08:40;;;;;;;4.22;3.35;;;;;;;-0.05;55.12;95278.50;5052081;28;20544;-63
2022/01/07 03:11:05;;;;;;;6.75;3.33;;;;;;;-0.45;53.51;95145.25;5050126;28;20029;-63
2022/01/07 03:13:30;;;;;;;4.32;3.30;;;;;;;0.54;53.55;95280.81;5051917;28;20043;-62
2022/01/07 03:15:56;;;;;;;4.50;3.30;;;;;;;-0.35;53.23;95158.50;5050532;28;20039;-62
2022/01/07 03:18:21;;;;;;;4.75;2.97;;;;;;;2.46;53.26;95559.97;5050478;28;20065;-62
2022/01/07 03:20:47;;;;;;;9.95;3.45;;;;;;;2.25;52.65;95500.34;5050752;28;20450;-62
2022/01/07 03:23:13;;;;;;;4.25;3.15;;;;;;;0.00;52.33;95174.00;5051527;28;20642;-62
2022/01/07 03:25:40;;;;;;;6.35;3.03;;;;;;;2.18;52.12;95516.28;5051457;28;20112;-62
2022/01/07 03:28:08;;;;;;;5.78;2.85;;;;;;;1.10;52.51;95305.25;5051484;28;20051;-62
2022/01/07 03:30:33;;;;;;;4.65;2.60;;;;;;;2.19;52.74;95493.44;5051289;28;20029;-62
2022/01/07 03:32:58;;;;;;;2.80;2.50;;;;;;;2.59;52.25;95543.06;5032608;28;20023;-63
2022/01/07 03:35:24;;;;;;;3.65;2.30;;;;;;;2.21;52.04;95489.56;5050890;28;20545;-63
2022/01/07 03:37:49;;;;;;;2.75;2.30;;;;;;;1.80;51.98;95385.91;5051183;28;20040;-62
2022/01/07 03:40:17;;;;;;;4.30;2.17;;;;;;;2.59;52.41;95535.97;5050897;28;20086;-61
2022/01/07 03:42:44;;;;;;;4.30;2.42;;;;;;;2.08;52.08;95426.91;5051109;28;20060;-62
2022/01/07 03:45:10;;;;;;;5.85;2.13;;;;;;;1.83;51.96;95380.16;5050959;28;20029;-62
2022/01/07 03:47:36;;;;;;;3.58;2.05;;;;;;;0.89;51.82;95257.78;5050512;28;20037;-63
2022/01/07 03:50:06;;;;;;;4.60;2.40;;;;;;;2.59;51.82;95507.09;5050458;28;20078;-63
2022/01/07 03:52:32;;;;;;;4.30;1.90;;;;;;;0.04;52.04;95226.59;5050757;28;20043;-62
2022/01/07 03:54:58;;;;;;;5.13;1.80;;;;;;;0.93;52.60;95350.56;5050737;28;20036;-62
2022/01/07 03:57:23;;;;;;;4.78;2.38;;;;;;;2.13;52.51;95510.94;5050873;28;20033;-62
2022/01/07 03:59:50;;;;;;;4.70;2.35;;;;;;;2.08;52.20;95480.19;5050483;28;20039;-63
2022/01/07 04:02:17;;;;;;;5.18;2.22;;;;;;;2.33;51.57;95505.97;5050286;28;20033;-62
2022/01/07 04:04:43;;;;;;;4.28;2.10;;;;;;;0.64;52.85;95359.50;5050275;28;20113;-63
2022/01/07 04:07:08;;;;;;;3.20;2.00;;;;;;;-0.14;54.26;95312.06;5050783;28;20056;-62
2022/01/07 04:09:34;;;;;;;2.60;2.03;;;;;;;-1.14;53.01;95072.94;5050334;28;20045;-64
2022/01/07 04:12:00;;;;;;;4.72;2.30;;;;;;;1.06;52.99;95420.19;5050589;28;20029;-63
2022/01/07 04:14:26;;;;;;;3.58;2.28;;;;;;;0.05;53.44;95283.88;5050730;28;20029;-62
2022/01/07 04:16:52;;;;;;;3.47;2.17;;;;;;;0.00;53.44;95286.44;5049767;28;20368;-63
2022/01/07 04:19:17;;;;;;;4.78;2.15;;;;;;;0.42;55.97;95475.31;5049859;28;20037;-62
2022/01/07 04:21:43;;;;;;;4.22;2.03;;;;;;;1.27;54.71;95503.31;5032212;28;20067;-62
2022/01/07 04:24:09;;;;;;;3.92;2.10;;;;;;;1.46;53.94;95480.31;5050699;28;20439;-62
2022/01/07 04:26:35;;;;;;;5.40;2.33;;;;;;;1.03;53.12;95391.84;5050503;28;20033;-62
2022/01/07 04:29:00;;;;;;;6.72;2.55;;;;;;;1.60;52.81;95461.66;5049982;28;20032;-62
2022/01/07 04:31:26;;;;;;;7.00;2.17;;;;;;;0.47;52.36;95305.31;5031796;28;20493;-62
2022/01/07 04:33:51;;;;;;;3.88;2.40;;;;;;;1.22;52.37;95384.53;5049862;28;20039;-63
2022/01/07 04:36:17;;;;;;;5.03;2.40;;;;;;;1.72;52.16;95460.53;5049722;28;20056;-62
2022/01/07 04:38:44;;;;;;;8.00;2.35;;;;;;;2.06;51.92;95513.75;5050316;28;20423;-63
2022/01/07 04:41:10;;;;;;;4.82;2.88;;;;;;;0.86;51.94;95346.50;5049690;28;20063;-62
2022/01/07 04:43:35;;;;;;;5.13;2.13;;;;;;;1.66;51.93;95476.44;5032022;28;20412;-62
2022/01/07 04:46:01;;;;;;;3.10;2.20;;;;;;;1.66;51.75;95468.56;5049390;28;20043;-63
2022/01/07 04:48:26;;;;;;;8.60;2.80;;;;;;;-0.36;51.75;95181.22;5049684;28;20029;-62
2022/01/07 04:50:52;;;;;;;4.15;2.25;;;;;;;0.35;51.95;95306.38;5048957;28;20029;-63
2022/01/07 04:53:17;;;;;;;4.40;2.47;;;;;;;0.36;51.60;95282.63;5049727;28;20033;-63
2022/01/07 04:55:44;;;;;;;5.85;2.80;;;;;;;2.07;51.35;95562.56;5049495;28;20028;-63
2022/01/07 04:58:12;;;;;;;3.42;2.33;;;;;;;0.48;51.51;95272.88;5049863;28;20032;-62
2022/01/07 05:00:39;;;;;;;3.95;1.92;;;;;;;1.13;51.44;95378.13;5049275;28;20029;-63
2022/01/07 05:03:05;;;;;;;5.35;1.98;;;;;;;-0.16;51.79;95212.13;5030949;28;20031;-62
2022/01/07 05:05:31;;;;;;;5.03;2.25;;;;;;;2.02;52.15;95533.63;5049092;28;20024;-63
2022/01/07 05:07:56;;;;;;;4.68;2.33;;;;;;;0.15;51.91;95267.59;5049520;28;20064;-63
2022/01/07 05:10:22;;;;;;;5.20;2.58;;;;;;;0.76;51.66;95324.34;5049209;28;20029;-63
2022/01/07 05:12:48;;;;;;;4.38;2.60;;;;;;;1.91;51.72;95499.63;5049577;28;20032;-63
2022/01/07 05:15:15;;;;;;;3.92;1.92;;;;;;;-0.25;51.96;95250.16;5049254;28;20387;-63
2022/01/07 05:17:42;;;;;;;3.35;2.00;;;;;;;0.01;52.46;95292.47;5048761;28;20072;-63
2022/01/07 05:20:08;;;;;;;4.30;2.30;;;;;;;-0.27;52.09;95233.88;5048884;28;20100;-63
2022/01/07 05:22:34;;;;;;;5.03;2.20;;;;;;;1.88;52.06;95527.13;5049170;28;20029;-63
2022/01/07 05:24:59;;;;;;;2.20;1.88;;;;;;;0.83;52.17;95368.75;5049278;28;20402;-63
2022/01/07 05:27:25;;;;;;;3.63;2.45;;;;;;;0.69;51.86;95336.03;5049355;28;20082;-63
2022/01/07 05:29:50;;;;;;;5.63;2.22;;;;;;;1.92;51.78;95561.53;5030788;28;20032;-63
2022/01/07 05:32:16;;;;;;;3.58;2.65;;;;;;;0.16;51.71;95263.97;5048408;28;20032;-62
2022/01/07 05:34:42;;;;;;;4.13;2.55;;;;;;;1.81;51.37;95506.31;5048199;28;20074;-63
2022/01/07 05:37:10;;;;;;;4.30;2.90;;;;;;;1.22;51.44;95460.53;5048858;28;20355;-63
2022/01/07 05:39:35;;;;;;;5.63;2.70;;;;;;;0.54;51.12;95312.22;5048850;28;20761;-63
2022/01/07 05:42:01;;;;;;;4.97;2.58;;;;;;;1.86;51.22;95541.53;5048891;28;20092;-62
2022/01/07 05:44:26;;;;;;;6.50;2.38;;;;;;;1.00;52.27;95453.34;5049190;28;20678;-62
2022/01/07 05:46:52;;;;;;;2.65;2.25;;;;;;;-0.69;53.54;95228.13;5048308;28;20036;-62
2022/01/07 05:49:18;;;;;;;3.45;2.75;;;;;;;1.00;52.70;95466.44;5048312;28;20029;-62
2022/01/07 05:51:43;;;;;;;5.38;3.10;;;;;;;1.73;51.97;95505.91;5048942;28;20021;-62
2022/01/07 05:54:09;;;;;;;3.15;2.63;;;;;;;0.31;51.60;95295.63;5031011;28;20171;-63
2022/01/07 05:56:36;;;;;;;5.55;2.60;;;;;;;1.68;51.89;95487.47;5048682;28;20483;-63
2022/01/07 05:59:02;;;;;;;5.13;3.17;;;;;;;0.47;51.63;95317.59;5048581;28;20025;-62
2022/01/07 06:01:27;;;;;;;4.60;2.88;;;;;;;1.32;51.57;95447.59;5048305;28;20013;-63
2022/01/07 06:03:53;;;;;;;4.68;2.97;;;;;;;-0.07;51.72;95210.72;5048571;28;20028;-62
2022/01/07 06:06:19;;;;;;;4.63;2.83;;;;;;;0.27;51.71;95259.69;5048694;28;20032;-62
2022/01/07 06:08:44;;;;;;;4.57;3.47;;;;;;;1.98;51.65;95556.13;5048878;28;20743;-62
2022/01/07 06:11:10;;;;;;;4.88;3.40;;;;;;;0.21;51.55;95258.81;5048643;28;20032;-62
2022/01/07 06:13:36;;;;;;;8.32;3.55;;;;;;;1.21;51.68;95441.38;5048893;28;20021;-62
2022/01/07 06:16:02;;;;;;;6.05;3.75;;;;;;;1.63;51.56;95487.38;5048555;28;20048;-63
2022/01/07 06:18:28;;;;;;;6.80;4.03;;;;;;;1.23;51.56;95420.22;5049745;28;20108;-63
2022/01/07 06:20:53;;;;;;;5.63;3.75;;;;;;;-0.11;51.92;95196.53;5048194;28;20412;-63
2022/01/07 06:23:20;;;;;;;8.32;3.83;;;;;;;1.67;52.21;95473.56;5049051;28;20490;-62
2022/01/07 06:25:48;;;;;;;6.05;4.10;;;;;;;0.42;51.84;95263.34;5048590;28;20025;-63
2022/01/07 06:28:14;;;;;;;6.53;4.40;;;;;;;1.28;52.12;95412.44;5048928;28;20025;-62
2022/01/07 06:30:40;;;;;;;7.50;4.20;;;;;;;1.19;51.77;95401.53;5048204;28;20021;-62
2022/01/07 06:33:05;;;;;;;7.20;4.43;;;;;;;0.49;51.71;95284.13;5048312;28;20462;-62
2022/01/07 06:35:31;;;;;;;4.88;4.35;;;;;;;0.72;51.53;95289.22;5048186;28;20024;-62
2022/01/07 06:37:56;;;;;;;7.10;4.38;;;;;;;1.23;51.77;95402.66;5048639;28;20082;-62
2022/01/07 06:40:22;;;;;;;4.70;3.78;;;;;;;2.33;51.90;95549.81;5030270;28;20032;-62
2022/01/07 06:42:47;;;;;;;8.38;3.80;;;;;;;0.88;51.79;95324.31;5048642;28;20033;-63
2022/01/07 06:45:12;;;;;;;7.10;3.30;;;;;;;1.56;51.90;95459.50;5050414;28;20052;-63
2022/01/07 06:47:38;;;;;;;6.03;3.67;;;;;;;0.98;52.36;95404.88;5052008;28;20090;-63
2022/01/07 06:50:05;;;;;;;6.05;4.15;;;;;;;1.30;52.13;95412.97;5051488;28;20521;-63
2022/01/07 06:52:31;;;;;;;6.80;3.75;;;;;;;1.08;52.13;95394.56;5051979;28;20029;-62
2022/01/07 06:54:57;;;;;;;6.03;3.80;;;;;;;1.55;51.74;95415.97;5051908;28;20025;-63
2022/01/07 06:57:22;;;;;;;10.73;4.43;;;;;;;0.37;51.96;95238.94;5051837;28;20029;-63
2022/01/07 06:59:48;;;;;;;7.60;3.70;;;;;;;0.96;51.42;95295.06;5051716;28;20021;-62
2022/01/07 07:02:13;;;;;;;7.30;4.10;;;;;;;0.84;50.89;95233.38;5051518;28;20071;-63
2022/01/07 07:04:39;;;;;;;5.53;4.30;;;;;;;1.16;50.97;95278.88;5051492;28;20020;-63
2022/01/07 07:07:05;;;;;;;8.00;3.78;;;;;;;1.37;51.05;95308.75;5051321;28;20027;-63
2022/01/07 07:09:30;;;;;;;5.63;3.90;;;;;;;2.22;50.81;95416.88;5051481;28;20092;-63
2022/01/07 07:11:56;;;;;;;6.30;3.90;;;;;;;2.77;50.48;95489.44;5033570;28;20070;-63
2022/01/07 07:14:21;;;;;;;6.05;3.67;;;;;;;1.76;50.01;95321.84;5051722;28;20104;-63
2022/01/07 07:16:47;;;;;;;7.45;4.75;;;;;;;3.04;49.91;95544.66;5051094;28;20064;-63
2022/01/07 07:19:12;;;;;;;6.00;4.07;;;;;;;0.68;49.96;95174.75;5051150;28;20054;-63
2022/01/07 07:21:38;;;;;;;4.38;3.88;;;;;;;2.67;49.72;95469.13;5051396;28;20033;-64
2022/01/07 07:24:04;;;;;;;4.97;3.47;;;;;;;1.97;49.92;95384.00;5051603;28;20104;-65
2022/01/07 07:26:29;;;;;;;6.22;3.75;;;;;;;2.29;49.67;95435.84;5051404;28;20029;-64
2022/01/07 07:28:55;;;;;;;5.80;3.50;;;;;;;1.93;49.63;95387.38;5051159;28;20036;-64
2022/01/07 07:31:21;;;;;;;6.97;3.83;;;;;;;2.73;50.01;95498.84;5051254;28;20033;-64
2022/01/07 07:36:32;;;;;;;5.32;3.45;;;;;;;2.82;50.47;95537.59;5051057;28;20566;-64
2022/01/07 07:39:03;;;;;;;5.95;3.50;;;;;;;2.74;49.87;95474.16;5050668;28;20052;-64
2022/01/07 07:41:29;;;;;;;4.65;3.10;;;;;;;2.86;49.91;95495.84;5033397;28;20119;-64
2022/01/07 07:43:56;;;;;;;4.47;3.10;;;;;;;2.76;49.25;95441.34;5033123;28;20622;-64
2022/01/07 07:46:22;;;;;;;3.90;3.10;;;;;;;3.47;49.48;95533.25;5050778;28;20029;-63
2022/01/07 07:48:51;;;;;;;7.22;3.20;;;;;;;3.34;49.27;95497.66;5050337;28;20039;-65
2022/01/07 07:51:16;;;;;;;2.60;2.40;;;;;;;2.76;48.81;95395.91;5050544;28;20379;-64
2022/01/07 07:53:42;;;;;;;5.57;2.88;;;;;;;3.27;48.87;95491.00;5051034;28;20029;-70
2022/01/07 07:56:10;;;;;;;6.25;3.65;;;;;;;3.77;48.88;95538.00;5050855;28;20036;-64
2022/01/07 07:58:36;;;;;;;4.22;2.78;;;;;;;2.23;48.86;95308.22;5051310;28;20032;-64
2022/01/07 08:01:01;;;;;;;4.53;3.13;;;;;;;3.40;48.63;95464.31;5050604;28;20033;-64
2022/01/07 08:03:27;;;;;;;4.82;3.20;;;;;;;3.44;48.39;95449.63;5032709;28;20029;-64
2022/01/07 08:05:53;;;;;;;4.53;3.15;;;;;;;4.14;48.43;95537.22;5050496;28;20487;-64
2022/01/07 08:08:18;;;;;;;3.83;2.78;;;;;;;3.42;48.03;95414.09;5050804;28;20047;-63
2022/01/07 08:10:48;;;;;;;5.05;2.90;;;;;;;4.08;48.05;95523.22;5050514;28;20139;-62
2022/01/07 08:15:58;;;;;;;3.35;2.58;;;;;;;3.95;47.49;95455.25;5050676;28;20109;-64
2022/01/07 08:18:33;;;;;;;4.72;3.03;;;;;;;4.56;47.64;95520.63;5050421;28;20036;-66
2022/01/07 08:21:04;;;;;;;6.57;2.88;;;;;;;4.70;47.32;95530.41;5048945;28;20025;-66
2022/01/07 08:23:32;;;;;;;4.55;2.90;;;;;;;4.20;47.15;95438.81;5050594;28;20037;-64
2022/01/07 08:25:58;;;;;;;3.22;2.80;;;;;;;4.24;47.04;95415.38;5032082;28;20087;-65
2022/01/07 08:28:29;;;;;;;4.07;3.10;;;;;;;3.61;46.58;95302.97;5050318;28;20423;-63
2022/01/07 08:36:17;;;;;;;5.47;2.67;;;;;;;3.75;45.91;95265.69;5044429;28;20086;-64
2022/01/07 08:38:44;;;;;;;6.43;2.85;;;;;;;3.43;46.38;95206.13;5050140;28;20582;-63
2022/01/07 08:41:09;;;;;;;3.35;2.70;;;;;;;4.08;45.85;95327.63;5049681;28;20068;-64
2022/01/07 08:43:35;;;;;;;4.03;2.80;;;;;;;3.87;45.27;95282.03;5050072;28;20068;-62
2022/01/07 08:46:01;;;;;;;3.28;2.58;;;;;;;4.16;45.46;95293.72;5031911;28;20075;-66
2022/01/07 08:48:27;;;;;;;9.43;2.83;;;;;;;5.74;45.73;95565.53;5049607;28;20048;-64
2022/01/07 08:50:53;;;;;;;4.15;2.90;;;;;;;4.99;45.37;95378.97;5049078;28;20025;-64
2022/01/07 08:53:19;;;;;;;4.07;2.65;;;;;;;4.08;45.32;95252.09;5049735;28;20025;-65
2022/01/07 08:55:45;;;;;;;4.38;2.70;;;;;;;4.42;44.95;95262.16;5049328;28;20033;-66
2022/01/07 08:58:11;;;;;;;5.80;3.45;;;;;;;5.72;44.68;95424.31;5049878;28;20036;-65
2022/01/07 09:00:36;;;;;;;4.18;2.67;;;;;;;5.98;44.56;95454.94;5049565;28;20032;-64
2022/01/07 09:03:02;;;;;;;5.50;2.80;;;;;;;5.27;44.18;95328.31;5050941;28;20037;-64
2022/01/07 09:05:27;;;;;;;5.05;2.90;;;;;;;5.58;44.06;95323.00;5049033;28;20029;-65
2022/01/07 09:07:52;;;;;;;8.27;2.47;;;;;;;5.82;43.29;95323.22;5048579;28;20043;-65
2022/01/07 09:10:18;;;;;;;4.72;2.97;;;;;;;6.06;43.37;95350.63;5049063;28;20021;-65
2022/01/07 09:12:44;;;;;;;2.80;2.20;;;;;;;6.97;43.02;95488.72;5049506;28;20158;-66
2022/01/07 09:15:10;;;;;;;3.50;2.72;;;;;;;6.72;45.84;95444.69;5049298;28;20056;-65
2022/01/07 09:17:36;;;;;;;3.35;2.05;;;;;;;6.42;43.55;95347.81;5049018;28;20045;-65
2022/01/07 09:20:03;;;;;;;4.50;2.22;;;;;;;7.66;42.74;95510.78;5048945;28;20033;-64
2022/01/07 09:22:28;;;;;;;4.32;2.10;;;;;;;7.65;42.26;95517.16;5031318;28;20529;-64
2022/01/07 09:24:53;;;;;;;3.25;2.47;;;;;;;7.75;42.33;95506.50;5031584;28;20029;-64
2022/01/07 09:27:19;;;;;;;2.65;2.08;;;;;;;7.74;41.53;95495.13;5049154;28;20079;-64
2022/01/07 09:29:45;;;;;;;3.22;2.00;;;;;;;7.71;41.70;95474.47;5049011;28;20040;-64
2022/01/07 09:32:11;;;;;;;3.00;2.13;;;;;;;7.38;41.30;95462.03;5049546;28;20619;-64
2022/01/07 09:34:37;;;;;;;2.45;2.25;;;;;;;7.49;42.70;95485.50;5034282;28;20056;-64
2022/01/07 09:37:04;;;;;;;2.65;2.42;;;;;;;7.33;42.19;95491.97;5048953;28;20521;-65
2022/01/07 09:39:31;;;;;;;2.33;1.77;;;;;;;7.50;42.56;95471.19;5049014;28;20389;-65
2022/01/07 09:41:57;;;;;;;3.42;2.13;;;;;;;7.87;42.63;95483.09;5049249;28;20021;-65
2022/01/07 09:44:22;;;;;;;2.75;1.85;;;;;;;7.64;41.95;95474.00;5049446;28;20387;-65
2022/01/07 09:46:47;;;;;;;2.15;1.88;;;;;;;7.98;42.32;95459.94;5031313;28;20715;-64
2022/01/07 09:49:13;;;;;;;2.00;1.63;;;;;;;7.63;42.66;95483.03;5048321;28;20021;-64
2022/01/07 09:51:40;;;;;;;5.93;2.60;;;;;;;8.01;42.28;95478.72;5048629;28;20440;-65
2022/01/07 09:54:06;;;;;;;4.03;1.98;;;;;;;8.31;41.95;95482.16;5031254;28;20051;-65
2022/01/07 09:56:32;;;;;;;2.45;1.83;;;;;;;8.25;41.57;95449.63;5030989;28;20577;-64
2022/01/07 09:58:58;;;;;;;2.28;1.80;;;;;;;8.59;41.02;95477.91;5031198;28;20033;-65
2022/01/07 10:01:25;;;;;;;2.35;1.63;;;;;;;8.14;40.71;95407.59;5049202;28;20024;-64
2022/01/07 10:03:51;;;;;;;1.20;0.93;;;;;;;7.73;39.08;95482.16;5030577;28;20047;-62
2022/01/07 10:06:26;;;;;;;2.97;1.60;;;;;;;5.88;43.45;95480.53;5048923;28;20029;-64
2022/01/07 10:09:10;;;;;;;2.22;1.60;;;;;;;5.30;44.08;95475.50;5031274;28;20031;-63
2022/01/07 10:11:36;;;;;;;3.63;1.20;;;;;;;4.22;47.16;95484.09;5048972;28;20090;-63
2022/01/07 10:14:19;;;;;;;2.90;1.50;;;;;;;5.54;44.12;95465.25;5031244;28;20471;-62
2022/01/07 10:16:53;;;;;;;5.97;1.63;;;;;;;4.38;45.98;95464.69;5048716;28;20387;-62
2022/01/07 10:19:38;;;;;;;4.90;1.83;;;;;;;5.06;44.89;95475.19;5030619;28;20033;-64
2022/01/07 10:22:11;;;;;;;2.67;1.20;;;;;;;4.28;46.20;95448.03;5035006;28;20041;-63
2022/01/07 10:25:00;;;;;;;1.63;1.30;;;;;;;4.83;44.76;95471.19;5052677;28;20390;-62
2022/01/07 10:27:33;;;;;;;1.70;1.23;;;;;;;4.36;46.18;95426.50;5052683;28;20048;-64
2022/01/07 10:29:59;;;;;;;5.03;1.20;;;;;;;4.67;45.39;95459.00;5052192;28;20021;-64
2022/01/07 10:32:32;;;;;;;1.98;1.00;;;;;;;4.76;45.04;95441.66;5034828;28;20036;-64
2022/01/07 10:35:20;;;;;;;1.63;1.20;;;;;;;4.18;45.46;95415.34;5051905;28;20028;-65
2022/01/07 10:37:49;;;;;;;1.63;0.80;;;;;;;4.91;44.17;95457.50;5034494;28;20029;-64
2022/01/07 10:40:22;;;;;;;3.63;1.17;;;;;;;4.72;44.78;95445.06;5051655;28;20562;-64
2022/01/07 10:42:48;;;;;;;1.10;0.82;;;;;;;4.48;44.71;95445.50;5034531;28;20040;-64
2022/01/07 10:45:14;;;;;;;3.10;1.25;;;;;;;4.79;43.84;95429.78;5052228;28;20021;-65
2022/01/07 10:47:39;;;;;;;2.13;1.10;;;;;;;5.18;43.02;95420.38;5034305;28;20425;-65
2022/01/07 10:50:23;;;;;;;1.48;0.90;;;;;;;5.86;42.69;95414.00;5033438;28;20029;-64
2022/01/07 10:52:49;;;;;;;1.55;1.08;;;;;;;6.44;40.98;95398.53;5034130;28;20515;-72
2022/01/07 10:55:18;;;;;;;1.73;1.10;;;;;;;5.64;41.14;95385.28;5034339;28;20021;-64
2022/01/07 10:57:49;;;;;;;3.33;0.85;;;;;;;5.27;40.96;95264.22;5051920;28;20029;-64
2022/01/07 11:00:17;;;;;;;1.08;0.88;;;;;;;7.08;40.45;95394.25;5051902;28;20036;-66
2022/01/07 11:02:43;;;;;;;1.90;1.42;;;;;;;7.47;39.06;95389.72;5034109;28;20024;-65
2022/01/07 11:05:09;;;;;;;2.55;1.13;;;;;;;6.73;39.52;95383.59;5033459;28;20151;-65
2022/01/07 11:07:35;;;;;;;1.70;0.93;;;;;;;5.53;39.92;95389.78;5033658;28;20067;-65
2022/01/07 11:10:05;;;;;;;7.57;1.05;;;;;;;4.74;42.67;95371.81;5051538;28;20477;-64
2022/01/07 11:12:31;;;;;;;3.55;1.20;;;;;;;5.90;41.57;95413.22;5033838;28;20510;-63
2022/01/07 11:14:58;;;;;;;2.50;0.80;;;;;;;6.48;39.88;95395.09;5034074;28;20398;-62
2022/01/07 11:17:26;;;;;;;2.22;1.30;;;;;;;5.48;40.77;95368.69;5051595;28;20386;-62
2022/01/07 11:19:59;;;;;;;2.22;1.15;;;;;;;6.87;40.10;95369.78;5050765;28;20032;-64
2022/01/07 11:22:26;;;;;;;6.75;1.67;;;;;;;7.23;38.68;95391.50;5051267;28;20027;-64
2022/01/07 11:25:10;;;;;;;2.22;0.80;;;;;;;7.97;37.52;95363.00;5051803;28;20100;-67
2022/01/07 11:27:57;;;;;;;5.47;1.13;;;;;;;8.68;37.02;95377.31;5051343;28;20059;-66
2022/01/07 11:30:28;;;;;;;2.72;1.20;;;;;;;8.84;36.07;95350.28;5032728;28;20025;-65
2022/01/07 11:32:54;;;;;;;1.90;1.10;;;;;;;9.27;35.43;95367.97;5032619;28;20037;-66
2022/01/07 11:35:19;;;;;;;1.30;1.20;;;;;;;9.48;35.18;95365.78;5051207;28;20020;-66
2022/01/07 11:37:52;;;;;;;5.22;1.20;;;;;;;9.17;34.53;95368.13;5051198;28;20036;-65
2022/01/07 11:40:32;;;;;;;2.33;1.13;;;;;;;9.25;34.55;95362.16;5050856;28;20415;-64
2022/01/07 11:43:19;;;;;;;3.22;1.10;;;;;;;9.38;34.66;95366.75;5033358;28;20119;-63
2022/01/07 11:45:46;;;;;;;5.00;1.30;;;;;;;7.91;35.89;95341.09;5033395;28;20064;-62
2022/01/07 11:48:27;;;;;;;1.63;1.10;;;;;;;7.92;36.47;95368.38;5050952;28;20067;-66
2022/01/07 11:50:54;;;;;;;6.38;1.25;;;;;;;7.64;37.08;95368.13;5050404;28;20032;-66